Meteo Giornale » Osservazioni meteo Italia » Trieste

ore: 00:55 - Osservazioni Meteo Trieste
Lat. 45° 39' N Lon. 13° 45' E Alt. 8 metri s.l.m.

coperto Europe/Rome

15 °C

Coperto

Temp. 24 Ore

14 °C

17 °C

Nord-Est

9.3 Km/h

Dew point 12 °C

Umidità 82 %

Visibilità  10 Km

Il sole sorge alle ore 05:56

Il sole tramonta alle ore 20:08

Data e Ora Cielo e Fenomeni T °C DP °C Um. % Pres. hPa Vis. km Vento km/h
Oggi h: 00:55 coperto Coperto 15 12 82 1009 10 NE 9.3
Ieri h: 23:55 coperto_pioggia Pioggia Debole 14 13 93 1009 10 N 5.5
Ieri h: 22:55 coperto_pioggia Pioviggine Leggera 15 12 82 1009 10 N 3.7
Ieri h: 21:55 coperto_pioggia Pioggia Debole 14 12 87 1009 10 N 3.7
Ieri h: 20:55 molto_nuvoloso Molto Nuvoloso 16 11 72 1009 10 E 7.4
Ieri h: 19:55 molto_nuvoloso Molto Nuvoloso 15 11 76 1008 10 N 5.5
Ieri h: 18:55 molto_nuvoloso Molto Nuvoloso 15 11 76 1010 10 N 5.5
Ieri h: 17:55 coperto Coperto 14 11 82 1010 8 N 1.8
Ieri h: 16:55 coperto_pioggia Pioggia Debole 14 12 87 1010 6 N 3.7
Ieri h: 15:55 coperto_pioggia Pioggia Debole 15 12 82 1010 6 N 3.7
Ieri h: 14:55 coperto_pioggia Pioggia Debole 16 11 72 1010 6 N 5.5
Ieri h: 13:55 coperto Coperto 17 10 63 1010 7 SE 16.7
Ieri h: 12:55 coperto Coperto 16 10 67 1010 8 E/NE 16.7
Ieri h: 11:55 molto_nuvoloso Molto Nuvoloso 17 10 63 1010 10 SE 9.3
Ieri h: 09:55 molto_nuvoloso Molto Nuvoloso 17 10 63 1010 10 S/SE 11.1
Ieri h: 08:55 nuvoloso Nuvoloso 16 11 72 1010 10 N 3.7
Ieri h: 07:55 nuvoloso Nuvoloso 15 11 76 1010 10 N 3.7
Ieri h: 06:55 nuvoloso Nuvoloso 15 11 76 1010 10 N 1.8
Ieri h: 05:55 sereno Sereno 14 11 82 1010 10 N 1.8
Ieri h: 04:55 sereno Sereno 14 11 82 1011 10 N 0
Ieri h: 03:55 sereno Sereno 14 11 82 1011 10 N 1.8
Ieri h: 02:55 sereno Sereno 15 11 76 1011 10 N 3.7
Ieri h: 01:55 sereno Sereno 15 10 72 1011 10 N 5.5